sensor_id;sensor_type;location;lat;lon;timestamp;pressure;altitude;pressure_sealevel;temperature;humidity
51715;BME280;39115;59.332;18.034;2023-04-25T00:00:49;99789.13;;;6.22;49.09
51715;BME280;39115;59.332;18.034;2023-04-25T00:03:12;99785.91;;;6.19;48.52
51715;BME280;39115;59.332;18.034;2023-04-25T00:05:33;99790.75;;;6.13;49.11
51715;BME280;39115;59.332;18.034;2023-04-25T00:07:54;99784.75;;;6.11;49.05
51715;BME280;39115;59.332;18.034;2023-04-25T00:10:14;99778.91;;;6.08;49.17
51715;BME280;39115;59.332;18.034;2023-04-25T00:12:34;99772.91;;;6.06;49.08
51715;BME280;39115;59.332;18.034;2023-04-25T00:14:55;99778.03;;;6.07;49.06
51715;BME280;39115;59.332;18.034;2023-04-25T00:17:19;99771.94;;;6.07;48.65
51715;BME280;39115;59.332;18.034;2023-04-25T00:19:40;99763.03;;;6.08;49.18
51715;BME280;39115;59.332;18.034;2023-04-25T00:22:00;99771.09;;;6.06;48.57
51715;BME280;39115;59.332;18.034;2023-04-25T00:24:21;99765.25;;;6.03;48.64
51715;BME280;39115;59.332;18.034;2023-04-25T00:26:41;99762.00;;;5.99;49.33
51715;BME280;39115;59.332;18.034;2023-04-25T00:29:01;99763.19;;;5.95;49.00
51715;BME280;39115;59.332;18.034;2023-04-25T00:31:22;99756.09;;;5.95;48.88
51715;BME280;39115;59.332;18.034;2023-04-25T00:33:42;99760.56;;;5.95;48.92
51715;BME280;39115;59.332;18.034;2023-04-25T00:36:02;99759.00;;;5.92;48.95
51715;BME280;39115;59.332;18.034;2023-04-25T00:38:23;99751.09;;;5.92;49.28
51715;BME280;39115;59.332;18.034;2023-04-25T00:40:43;99749.28;;;5.93;49.41
51715;BME280;39115;59.332;18.034;2023-04-25T00:43:03;99754.69;;;5.91;48.90
51715;BME280;39115;59.332;18.034;2023-04-25T00:45:27;99760.13;;;5.90;49.19
51715;BME280;39115;59.332;18.034;2023-04-25T00:47:47;99751.22;;;5.91;49.23
51715;BME280;39115;59.332;18.034;2023-04-25T00:50:08;99760.13;;;5.90;49.04
51715;BME280;39115;59.332;18.034;2023-04-25T00:52:29;99753.97;;;5.89;49.54
51715;BME280;39115;59.332;18.034;2023-04-25T00:54:49;99750.50;;;5.89;49.13
51715;BME280;39115;59.332;18.034;2023-04-25T00:57:10;99760.69;;;5.93;49.36
51715;BME280;39115;59.332;18.034;2023-04-25T00:59:30;99763.06;;;5.96;49.48
51715;BME280;39115;59.332;18.034;2023-04-25T01:01:51;99753.97;;;6.00;49.06
51715;BME280;39115;59.332;18.034;2023-04-25T01:04:12;99738.94;;;6.01;49.12
51715;BME280;39115;59.332;18.034;2023-04-25T01:06:32;99751.31;;;6.00;48.89
51715;BME280;39115;59.332;18.034;2023-04-25T01:08:53;99747.72;;;6.01;48.96
51715;BME280;39115;59.332;18.034;2023-04-25T01:11:13;99736.44;;;5.99;48.98
51715;BME280;39115;59.332;18.034;2023-04-25T01:13:34;99738.47;;;5.96;49.17
51715;BME280;39115;59.332;18.034;2023-04-25T01:15:55;99720.78;;;5.96;48.86
51715;BME280;39115;59.332;18.034;2023-04-25T01:18:15;99719.84;;;5.97;49.06
51715;BME280;39115;59.332;18.034;2023-04-25T01:20:36;99706.91;;;5.94;49.28
51715;BME280;39115;59.332;18.034;2023-04-25T01:22:57;99681.94;;;5.87;49.25
51715;BME280;39115;59.332;18.034;2023-04-25T01:25:17;99680.78;;;5.80;49.71
51715;BME280;39115;59.332;18.034;2023-04-25T01:27:38;99690.19;;;5.73;49.47
51715;BME280;39115;59.332;18.034;2023-04-25T01:29:59;99679.91;;;5.69;49.65
51715;BME280;39115;59.332;18.034;2023-04-25T01:32:20;99700.31;;;5.67;49.52
51715;BME280;39115;59.332;18.034;2023-04-25T01:34:41;99684.72;;;5.64;49.55
51715;BME280;39115;59.332;18.034;2023-04-25T01:37:02;99663.03;;;5.61;49.71
51715;BME280;39115;59.332;18.034;2023-04-25T01:39:22;99662.25;;;5.49;50.07
51715;BME280;39115;59.332;18.034;2023-04-25T01:41:44;99675.00;;;5.44;50.27
51715;BME280;39115;59.332;18.034;2023-04-25T01:44:04;99670.69;;;5.43;50.24
51715;BME280;39115;59.332;18.034;2023-04-25T01:46:25;99672.50;;;5.42;50.12
51715;BME280;39115;59.332;18.034;2023-04-25T01:48:46;99697.81;;;5.45;49.51
51715;BME280;39115;59.332;18.034;2023-04-25T01:51:06;99698.53;;;5.47;50.00
51715;BME280;39115;59.332;18.034;2023-04-25T01:53:26;99718.16;;;5.54;50.02
51715;BME280;39115;59.332;18.034;2023-04-25T01:55:47;99731.56;;;5.62;49.89
51715;BME280;39115;59.332;18.034;2023-04-25T01:58:07;99709.94;;;5.68;49.38
51715;BME280;39115;59.332;18.034;2023-04-25T02:00:29;99677.84;;;5.73;49.76
51715;BME280;39115;59.332;18.034;2023-04-25T02:02:50;99671.13;;;5.69;49.85
51715;BME280;39115;59.332;18.034;2023-04-25T02:05:11;99677.53;;;5.66;49.79
51715;BME280;39115;59.332;18.034;2023-04-25T02:07:31;99671.53;;;5.64;49.59
51715;BME280;39115;59.332;18.034;2023-04-25T02:09:52;99668.06;;;5.64;49.78
51715;BME280;39115;59.332;18.034;2023-04-25T02:12:12;99664.47;;;5.65;49.60
51715;BME280;39115;59.332;18.034;2023-04-25T02:14:33;99661.69;;;5.66;50.02
51715;BME280;39115;59.332;18.034;2023-04-25T02:16:53;99653.03;;;5.64;49.76
51715;BME280;39115;59.332;18.034;2023-04-25T02:19:14;99658.75;;;5.60;49.87
51715;BME280;39115;59.332;18.034;2023-04-25T02:21:34;99657.88;;;5.59;49.84
51715;BME280;39115;59.332;18.034;2023-04-25T02:23:55;99648.28;;;5.58;49.44
51715;BME280;39115;59.332;18.034;2023-04-25T02:26:16;99650.34;;;5.54;49.49
51715;BME280;39115;59.332;18.034;2023-04-25T02:28:36;99644.34;;;5.52;49.60
51715;BME280;39115;59.332;18.034;2023-04-25T02:30:57;99642.72;;;5.51;49.80
51715;BME280;39115;59.332;18.034;2023-04-25T02:33:17;99639.94;;;5.53;49.52
51715;BME280;39115;59.332;18.034;2023-04-25T02:35:37;99629.38;;;5.53;50.12
51715;BME280;39115;59.332;18.034;2023-04-25T02:37:58;99629.63;;;5.50;49.74
51715;BME280;39115;59.332;18.034;2023-04-25T02:40:18;99622.78;;;5.47;50.18
51715;BME280;39115;59.332;18.034;2023-04-25T02:42:38;99626.53;;;5.45;49.91
51715;BME280;39115;59.332;18.034;2023-04-25T02:44:59;99624.03;;;5.43;49.90
51715;BME280;39115;59.332;18.034;2023-04-25T02:47:19;99610.25;;;5.40;49.88
51715;BME280;39115;59.332;18.034;2023-04-25T02:49:39;99600.38;;;5.42;49.74
51715;BME280;39115;59.332;18.034;2023-04-25T02:52:00;99599.44;;;5.43;50.15
51715;BME280;39115;59.332;18.034;2023-04-25T02:54:20;99599.44;;;5.43;49.75
51715;BME280;39115;59.332;18.034;2023-04-25T02:56:41;99598.47;;;5.44;49.93
51715;BME280;39115;59.332;18.034;2023-04-25T02:59:01;99598.59;;;5.42;50.14
51715;BME280;39115;59.332;18.034;2023-04-25T03:01:21;99591.91;;;5.38;50.30
51715;BME280;39115;59.332;18.034;2023-04-25T03:03:42;99589.53;;;5.35;49.83
51715;BME280;39115;59.332;18.034;2023-04-25T03:06:02;99581.47;;;5.36;49.88
51715;BME280;39115;59.332;18.034;2023-04-25T03:08:22;99573.13;;;5.31;50.29
51715;BME280;39115;59.332;18.034;2023-04-25T03:10:43;99563.91;;;5.26;50.37
51715;BME280;39115;59.332;18.034;2023-04-25T03:13:04;99569.19;;;5.26;50.37
51715;BME280;39115;59.332;18.034;2023-04-25T03:15:24;99558.50;;;5.27;50.69
51715;BME280;39115;59.332;18.034;2023-04-25T03:17:44;99564.88;;;5.25;50.40
51715;BME280;39115;59.332;18.034;2023-04-25T03:20:05;99556.13;;;5.24;50.66
51715;BME280;39115;59.332;18.034;2023-04-25T03:22:25;99562.09;;;5.26;50.54
51715;BME280;39115;59.332;18.034;2023-04-25T03:24:46;99566.41;;;5.27;50.37
51715;BME280;39115;59.332;18.034;2023-04-25T03:27:07;99566.41;;;5.27;50.45
51715;BME280;39115;59.332;18.034;2023-04-25T03:29:27;99570.59;;;5.30;50.67
51715;BME280;39115;59.332;18.034;2023-04-25T03:31:48;99572.28;;;5.31;50.68
51715;BME280;39115;59.332;18.034;2023-04-25T03:34:09;99574.66;;;5.34;50.27
51715;BME280;39115;59.332;18.034;2023-04-25T03:36:31;99568.66;;;5.32;50.37
51715;BME280;39115;59.332;18.034;2023-04-25T03:38:52;99559.22;;;5.29;50.57
51715;BME280;39115;59.332;18.034;2023-04-25T03:41:12;99565.59;;;5.27;50.51
51715;BME280;39115;59.332;18.034;2023-04-25T03:43:33;99551.44;;;5.28;50.16
51715;BME280;39115;59.332;18.034;2023-04-25T03:45:53;99556.34;;;5.32;50.24
51715;BME280;39115;59.332;18.034;2023-04-25T03:48:14;99555.34;;;5.33;50.07
51715;BME280;39115;59.332;18.034;2023-04-25T03:50:34;99547.56;;;5.32;50.40
51715;BME280;39115;59.332;18.034;2023-04-25T03:52:54;99539.78;;;5.30;50.34
51715;BME280;39115;59.332;18.034;2023-04-25T03:55:15;99535.59;;;5.28;50.17
51715;BME280;39115;59.332;18.034;2023-04-25T03:57:35;99532.13;;;5.27;49.92
51715;BME280;39115;59.332;18.034;2023-04-25T03:59:56;99526.00;;;5.27;50.53
51715;BME280;39115;59.332;18.034;2023-04-25T04:02:17;99518.19;;;5.25;50.54
51715;BME280;39115;59.332;18.034;2023-04-25T04:04:37;99512.81;;;5.27;50.71
51715;BME280;39115;59.332;18.034;2023-04-25T04:06:57;99507.53;;;5.27;50.60
51715;BME280;39115;59.332;18.034;2023-04-25T04:09:18;99498.66;;;5.28;50.27
51715;BME280;39115;59.332;18.034;2023-04-25T04:11:39;99497.94;;;5.26;50.68
51715;BME280;39115;59.332;18.034;2023-04-25T04:14:00;99504.06;;;5.26;50.56
51715;BME280;39115;59.332;18.034;2023-04-25T04:16:20;99502.25;;;5.27;50.61
51715;BME280;39115;59.332;18.034;2023-04-25T04:18:41;99495.31;;;5.26;50.18
51715;BME280;39115;59.332;18.034;2023-04-25T04:21:01;99492.53;;;5.27;50.54
51715;BME280;39115;59.332;18.034;2023-04-25T04:23:21;99500.34;;;5.29;50.60
51715;BME280;39115;59.332;18.034;2023-04-25T04:25:42;99497.41;;;5.32;50.32
51715;BME280;39115;59.332;18.034;2023-04-25T04:28:03;99501.59;;;5.34;50.37
51715;BME280;39115;59.332;18.034;2023-04-25T04:30:24;99497.16;;;5.35;50.63
51715;BME280;39115;59.332;18.034;2023-04-25T04:32:44;99503.03;;;5.38;50.37
51715;BME280;39115;59.332;18.034;2023-04-25T04:35:05;99507.34;;;5.40;50.62
51715;BME280;39115;59.332;18.034;2023-04-25T04:37:26;99507.19;;;5.41;50.65
51715;BME280;39115;59.332;18.034;2023-04-25T04:39:46;99518.31;;;5.45;50.02
51715;BME280;39115;59.332;18.034;2023-04-25T04:42:07;99517.94;;;5.49;50.82
51715;BME280;39115;59.332;18.034;2023-04-25T04:44:29;99530.84;;;5.52;50.50
51715;BME280;39115;59.332;18.034;2023-04-25T04:46:49;99534.91;;;5.57;50.47
51715;BME280;39115;59.332;18.034;2023-04-25T04:49:10;99530.91;;;5.62;50.66
51715;BME280;39115;59.332;18.034;2023-04-25T04:51:31;99531.34;;;5.67;50.17
51715;BME280;39115;59.332;18.034;2023-04-25T04:53:51;99532.16;;;5.68;50.49
51715;BME280;39115;59.332;18.034;2023-04-25T04:56:12;99524.94;;;5.70;50.31
51715;BME280;39115;59.332;18.034;2023-04-25T04:58:32;99524.13;;;5.69;50.46
51715;BME280;39115;59.332;18.034;2023-04-25T05:00:53;99518.97;;;5.68;50.62
51715;BME280;39115;59.332;18.034;2023-04-25T05:03:13;99521.88;;;5.65;50.44
51715;BME280;39115;59.332;18.034;2023-04-25T05:05:33;99515.75;;;5.64;50.04
51715;BME280;39115;59.332;18.034;2023-04-25T05:07:54;99512.84;;;5.67;50.24
51715;BME280;39115;59.332;18.034;2023-04-25T05:10:14;99508.00;;;5.73;50.23
51715;BME280;39115;59.332;18.034;2023-04-25T05:12:35;99503.28;;;5.76;50.67
51715;BME280;39115;59.332;18.034;2023-04-25T05:14:55;99503.03;;;5.79;50.17
51715;BME280;39115;59.332;18.034;2023-04-25T05:17:16;99502.88;;;5.81;50.53
51715;BME280;39115;59.332;18.034;2023-04-25T05:19:36;99502.78;;;5.82;50.58
51715;BME280;39115;59.332;18.034;2023-04-25T05:21:56;99494.56;;;5.85;50.17
51715;BME280;39115;59.332;18.034;2023-04-25T05:24:16;99488.16;;;5.88;49.98
51715;BME280;39115;59.332;18.034;2023-04-25T05:26:37;99486.81;;;5.94;50.18
51715;BME280;39115;59.332;18.034;2023-04-25T05:28:58;99490.16;;;5.96;49.85
51715;BME280;39115;59.332;18.034;2023-04-25T05:31:18;99491.81;;;5.97;49.93
51715;BME280;39115;59.332;18.034;2023-04-25T05:33:38;99491.94;;;5.95;50.02
51715;BME280;39115;59.332;18.034;2023-04-25T05:35:59;99484.88;;;5.96;49.85
51715;BME280;39115;59.332;18.034;2023-04-25T05:38:20;99487.97;;;6.01;50.59
51715;BME280;39115;59.332;18.034;2023-04-25T05:40:40;99486.44;;;6.08;49.96
51715;BME280;39115;59.332;18.034;2023-04-25T05:43:01;99487.31;;;6.19;50.34
51715;BME280;39115;59.332;18.034;2023-04-25T05:45:21;99486.47;;;6.28;50.22
51715;BME280;39115;59.332;18.034;2023-04-25T05:47:41;99471.44;;;6.28;50.21
51715;BME280;39115;59.332;18.034;2023-04-25T05:50:02;99474.78;;;6.30;50.30
51715;BME280;39115;59.332;18.034;2023-04-25T05:52:22;99475.50;;;6.32;50.59
51715;BME280;39115;59.332;18.034;2023-04-25T05:54:42;99481.75;;;6.31;50.06
51715;BME280;39115;59.332;18.034;2023-04-25T05:57:03;99484.25;;;6.33;50.28
51715;BME280;39115;59.332;18.034;2023-04-25T05:59:23;99476.72;;;6.38;49.78
51715;BME280;39115;59.332;18.034;2023-04-25T06:01:44;99475.75;;;6.39;49.75
51715;BME280;39115;59.332;18.034;2023-04-25T06:04:04;99483.44;;;6.42;50.02
51715;BME280;39115;59.332;18.034;2023-04-25T06:06:25;99493.84;;;6.44;50.44
51715;BME280;39115;59.332;18.034;2023-04-25T06:08:46;99481.19;;;6.47;50.19
51715;BME280;39115;59.332;18.034;2023-04-25T06:11:07;99480.63;;;6.54;50.02
51715;BME280;39115;59.332;18.034;2023-04-25T06:13:27;99474.94;;;6.58;49.70
51715;BME280;39115;59.332;18.034;2023-04-25T06:15:47;99481.88;;;6.59;50.21
51715;BME280;39115;59.332;18.034;2023-04-25T06:18:08;99479.13;;;6.61;49.78
51715;BME280;39115;59.332;18.034;2023-04-25T06:20:28;99476.19;;;6.64;50.11
51715;BME280;39115;59.332;18.034;2023-04-25T06:22:49;99484.13;;;6.64;49.74
51715;BME280;39115;59.332;18.034;2023-04-25T06:25:10;99484.97;;;6.64;49.84
51715;BME280;39115;59.332;18.034;2023-04-25T06:27:30;99485.78;;;6.65;49.89
51715;BME280;39115;59.332;18.034;2023-04-25T06:29:50;99496.91;;;6.69;49.73
51715;BME280;39115;59.332;18.034;2023-04-25T06:32:11;99491.22;;;6.73;49.99
51715;BME280;39115;59.332;18.034;2023-04-25T06:34:31;99485.50;;;6.78;49.90
51715;BME280;39115;59.332;18.034;2023-04-25T06:36:51;99483.56;;;6.80;49.87
51715;BME280;39115;59.332;18.034;2023-04-25T06:39:12;99485.34;;;6.79;49.83
51715;BME280;39115;59.332;18.034;2023-04-25T06:41:32;99477.28;;;6.81;49.73
51715;BME280;39115;59.332;18.034;2023-04-25T06:43:52;99474.19;;;6.86;49.89
51715;BME280;39115;59.332;18.034;2023-04-25T06:46:12;99471.00;;;6.92;49.73
51715;BME280;39115;59.332;18.034;2023-04-25T06:48:33;99472.09;;;6.99;49.97
51715;BME280;39115;59.332;18.034;2023-04-25T06:50:53;99472.50;;;7.04;50.09
51715;BME280;39115;59.332;18.034;2023-04-25T06:53:14;99471.94;;;7.10;50.05
51715;BME280;39115;59.332;18.034;2023-04-25T06:55:34;99486.69;;;7.13;49.96
51715;BME280;39115;59.332;18.034;2023-04-25T06:57:55;99493.94;;;7.11;50.13
51715;BME280;39115;59.332;18.034;2023-04-25T07:00:15;99489.47;;;7.11;49.80
51715;BME280;39115;59.332;18.034;2023-04-25T07:02:36;99497.41;;;7.11;50.12
51715;BME280;39115;59.332;18.034;2023-04-25T07:04:56;99496.13;;;7.16;49.99
51715;BME280;39115;59.332;18.034;2023-04-25T07:07:19;99494.91;;;7.20;50.19
51715;BME280;39115;59.332;18.034;2023-04-25T07:09:40;99499.91;;;7.23;49.82
51715;BME280;39115;59.332;18.034;2023-04-25T07:12:00;99490.69;;;7.27;50.09
51715;BME280;39115;59.332;18.034;2023-04-25T07:14:21;99497.34;;;7.31;49.72
51715;BME280;39115;59.332;18.034;2023-04-25T07:16:42;99507.50;;;7.36;49.97
51715;BME280;39115;59.332;18.034;2023-04-25T07:19:02;99502.63;;;7.41;49.56
51715;BME280;39115;59.332;18.034;2023-04-25T07:21:22;99503.19;;;7.44;50.09
51715;BME280;39115;59.332;18.034;2023-04-25T07:23:43;99511.38;;;7.51;49.68
51715;BME280;39115;59.332;18.034;2023-04-25T07:26:03;99500.22;;;7.57;50.02
51715;BME280;39115;59.332;18.034;2023-04-25T07:28:24;99502.28;;;7.64;49.67
51715;BME280;39115;59.332;18.034;2023-04-25T07:30:44;99501.69;;;7.70;49.59
51715;BME280;39115;59.332;18.034;2023-04-25T07:33:05;99502.38;;;7.72;49.45
51715;BME280;39115;59.332;18.034;2023-04-25T07:35:25;99506.53;;;7.74;49.69
51715;BME280;39115;59.332;18.034;2023-04-25T07:37:45;99511.53;;;7.78;49.64
51715;BME280;39115;59.332;18.034;2023-04-25T07:40:06;99518.22;;;7.82;49.55
51715;BME280;39115;59.332;18.034;2023-04-25T07:42:27;99513.47;;;7.85;49.51
51715;BME280;39115;59.332;18.034;2023-04-25T07:44:48;99518.84;;;7.94;49.60
51715;BME280;39115;59.332;18.034;2023-04-25T07:47:09;99526.53;;;7.97;49.30
51715;BME280;39115;59.332;18.034;2023-04-25T07:49:29;99518.25;;;8.00;49.70
51715;BME280;39115;59.332;18.034;2023-04-25T07:51:50;99515.59;;;8.00;49.53
51715;BME280;39115;59.332;18.034;2023-04-25T07:54:13;99516.47;;;8.00;49.69
51715;BME280;39115;59.332;18.034;2023-04-25T07:56:34;99525.63;;;8.06;49.65
51715;BME280;39115;59.332;18.034;2023-04-25T07:58:55;99530.91;;;8.06;49.19
51715;BME280;39115;59.332;18.034;2023-04-25T08:01:15;99526.31;;;8.08;49.39
51715;BME280;39115;59.332;18.034;2023-04-25T08:03:36;99528.13;;;8.07;49.49
51715;BME280;39115;59.332;18.034;2023-04-25T08:05:56;99524.50;;;8.09;49.53
51715;BME280;39115;59.332;18.034;2023-04-25T08:08:17;99523.06;;;8.14;49.48
51715;BME280;39115;59.332;18.034;2023-04-25T08:10:37;99524.00;;;8.23;49.26
51715;BME280;39115;59.332;18.034;2023-04-25T08:12:58;99522.94;;;8.34;49.24
51715;BME280;39115;59.332;18.034;2023-04-25T08:15:19;99529.47;;;8.39;49.39
51715;BME280;39115;59.332;18.034;2023-04-25T08:17:39;99529.28;;;8.51;49.52
51715;BME280;39115;59.332;18.034;2023-04-25T08:19:59;99521.91;;;8.63;49.28
51715;BME280;39115;59.332;18.034;2023-04-25T08:22:20;99529.13;;;8.70;49.14
51715;BME280;39115;59.332;18.034;2023-04-25T08:24:41;99515.53;;;8.74;49.18
51715;BME280;39115;59.332;18.034;2023-04-25T08:27:01;99519.56;;;8.78;49.38
51715;BME280;39115;59.332;18.034;2023-04-25T08:29:22;99524.56;;;8.81;49.29
51715;BME280;39115;59.332;18.034;2023-04-25T08:31:44;99533.22;;;8.83;49.28
51715;BME280;39115;59.332;18.034;2023-04-25T08:34:05;99539.66;;;8.80;49.27
51715;BME280;39115;59.332;18.034;2023-04-25T08:36:25;99528.19;;;8.80;49.32
51715;BME280;39115;59.332;18.034;2023-04-25T08:38:47;99541.84;;;8.85;49.38
51715;BME280;39115;59.332;18.034;2023-04-25T08:41:08;99537.38;;;8.85;49.27
51715;BME280;39115;59.332;18.034;2023-04-25T08:43:31;99548.84;;;8.86;49.19
51715;BME280;39115;59.332;18.034;2023-04-25T08:45:51;99551.63;;;8.84;49.40
51715;BME280;39115;59.332;18.034;2023-04-25T08:48:14;99553.75;;;8.81;49.28
51715;BME280;39115;59.332;18.034;2023-04-25T08:50:34;99546.09;;;8.78;49.39
51715;BME280;39115;59.332;18.034;2023-04-25T08:52:55;99550.41;;;8.79;49.48
51715;BME280;39115;59.332;18.034;2023-04-25T08:55:21;99549.94;;;8.83;49.61
51715;BME280;39115;59.332;18.034;2023-04-25T08:57:42;99548.97;;;8.84;49.00
51715;BME280;39115;59.332;18.034;2023-04-25T09:00:03;99554.81;;;8.88;49.29
51715;BME280;39115;59.332;18.034;2023-04-25T09:02:24;99543.50;;;9.04;49.21
51715;BME280;39115;59.332;18.034;2023-04-25T09:04:44;99559.31;;;9.14;49.08
51715;BME280;39115;59.332;18.034;2023-04-25T09:07:05;99558.19;;;9.16;48.87
51715;BME280;39115;59.332;18.034;2023-04-25T09:09:25;99558.88;;;9.18;49.04
51715;BME280;39115;59.332;18.034;2023-04-25T09:11:45;99560.06;;;9.24;48.93
51715;BME280;39115;59.332;18.034;2023-04-25T09:14:24;99556.97;;;9.29;48.76
51715;BME280;39115;59.332;18.034;2023-04-25T09:19:21;99559.69;;;9.45;49.02
51715;BME280;39115;59.332;18.034;2023-04-25T09:21:42;99565.59;;;9.57;48.79
51715;BME280;39115;59.332;18.034;2023-04-25T09:24:02;99559.66;;;9.63;48.85
51715;BME280;39115;59.332;18.034;2023-04-25T09:26:23;99569.97;;;9.67;48.79
51715;BME280;39115;59.332;18.034;2023-04-25T09:28:44;99568.97;;;9.68;49.26
51715;BME280;39115;59.332;18.034;2023-04-25T09:31:05;99576.16;;;9.75;48.80
51715;BME280;39115;59.332;18.034;2023-04-25T09:33:32;99575.66;;;9.80;48.83
51715;BME280;39115;59.332;18.034;2023-04-25T09:35:53;99588.19;;;9.88;48.87
51715;BME280;39115;59.332;18.034;2023-04-25T09:38:15;99583.56;;;9.90;48.83
51715;BME280;39115;59.332;18.034;2023-04-25T09:40:39;99584.88;;;9.94;48.69
51715;BME280;39115;59.332;18.034;2023-04-25T09:42:59;99576.25;;;10.00;48.75
51715;BME280;39115;59.332;18.034;2023-04-25T09:45:20;99580.28;;;10.04;48.77
51715;BME280;39115;59.332;18.034;2023-04-25T09:47:41;99583.75;;;10.05;48.61
51715;BME280;39115;59.332;18.034;2023-04-25T09:50:04;99578.91;;;10.00;49.14
51715;BME280;39115;59.332;18.034;2023-04-25T09:52:33;99579.78;;;10.01;49.00
51715;BME280;39115;59.332;18.034;2023-04-25T09:54:53;99590.44;;;10.09;48.86
51715;BME280;39115;59.332;18.034;2023-04-25T09:59:48;99597.59;;;10.17;48.94
51715;BME280;39115;59.332;18.034;2023-04-25T10:02:08;99600.47;;;10.23;48.72
51715;BME280;39115;59.332;18.034;2023-04-25T10:04:29;99603.00;;;10.33;48.72
51715;BME280;39115;59.332;18.034;2023-04-25T10:06:53;99599.09;;;10.46;49.06
51715;BME280;39115;59.332;18.034;2023-04-25T10:09:16;99603.91;;;10.50;48.73
51715;BME280;39115;59.332;18.034;2023-04-25T10:11:38;99603.25;;;10.48;48.79
51715;BME280;39115;59.332;18.034;2023-04-25T10:13:58;99600.72;;;10.47;48.94
51715;BME280;39115;59.332;18.034;2023-04-25T10:16:20;99598.44;;;10.52;49.15
51715;BME280;39115;59.332;18.034;2023-04-25T10:18:41;99607.75;;;10.56;48.80
51715;BME280;39115;59.332;18.034;2023-04-25T10:21:01;99606.44;;;10.60;48.60
51715;BME280;39115;59.332;18.034;2023-04-25T10:23:23;99607.25;;;10.60;48.35
51715;BME280;39115;59.332;18.034;2023-04-25T10:25:44;99608.94;;;10.62;48.82
51715;BME280;39115;59.332;18.034;2023-04-25T10:28:04;99614.56;;;10.58;48.75
51715;BME280;39115;59.332;18.034;2023-04-25T10:30:25;99622.72;;;10.57;49.03
51715;BME280;39115;59.332;18.034;2023-04-25T10:32:46;99624.88;;;10.53;49.13
51715;BME280;39115;59.332;18.034;2023-04-25T10:35:13;99623.38;;;10.51;49.01
51715;BME280;39115;59.332;18.034;2023-04-25T10:37:35;99616.88;;;10.53;49.13
51715;BME280;39115;59.332;18.034;2023-04-25T10:39:56;99624.56;;;10.56;49.11
51715;BME280;39115;59.332;18.034;2023-04-25T10:42:16;99621.41;;;10.61;49.54
51715;BME280;39115;59.332;18.034;2023-04-25T10:44:37;99623.41;;;10.59;48.52
51715;BME280;39115;59.332;18.034;2023-04-25T10:47:00;99629.03;;;10.56;48.70
51715;BME280;39115;59.332;18.034;2023-04-25T10:49:34;99625.69;;;10.54;49.33
51715;BME280;39115;59.332;18.034;2023-04-25T10:52:10;99624.19;;;10.51;49.27
51715;BME280;39115;59.332;18.034;2023-04-25T10:54:30;99614.22;;;10.53;48.98
51715;BME280;39115;59.332;18.034;2023-04-25T10:56:51;99623.72;;;10.56;49.51
51715;BME280;39115;59.332;18.034;2023-04-25T10:59:12;99620.91;;;10.57;49.07
51715;BME280;39115;59.332;18.034;2023-04-25T11:01:52;99627.38;;;10.63;48.60
51715;BME280;39115;59.332;18.034;2023-04-25T11:04:32;99631.53;;;10.66;49.03
51715;BME280;39115;59.332;18.034;2023-04-25T11:09:26;99637.41;;;10.78;49.07
51715;BME280;39115;59.332;18.034;2023-04-25T11:11:53;99633.25;;;10.83;49.11
51715;BME280;39115;59.332;18.034;2023-04-25T11:14:13;99635.94;;;10.91;49.40
51715;BME280;39115;59.332;18.034;2023-04-25T11:16:34;99636.63;;;10.94;49.02
51715;BME280;39115;59.332;18.034;2023-04-25T11:18:59;99634.44;;;10.97;48.71
51715;BME280;39115;59.332;18.034;2023-04-25T11:21:19;99632.78;;;11.04;48.96
51715;BME280;39115;59.332;18.034;2023-04-25T11:23:40;99633.47;;;11.06;48.62
51715;BME280;39115;59.332;18.034;2023-04-25T11:26:00;99642.47;;;11.05;48.73
51715;BME280;39115;59.332;18.034;2023-04-25T11:28:21;99636.28;;;11.05;48.82
51715;BME280;39115;59.332;18.034;2023-04-25T11:30:47;99639.44;;;11.08;48.49
51715;BME280;39115;59.332;18.034;2023-04-25T11:33:09;99639.44;;;11.17;49.20
51715;BME280;39115;59.332;18.034;2023-04-25T11:35:30;99641.47;;;11.23;48.77
51715;BME280;39115;59.332;18.034;2023-04-25T11:37:50;99637.78;;;11.24;49.27
51715;BME280;39115;59.332;18.034;2023-04-25T11:40:11;99637.16;;;11.22;48.74
51715;BME280;39115;59.332;18.034;2023-04-25T11:42:31;99638.97;;;11.21;48.50
51715;BME280;39115;59.332;18.034;2023-04-25T11:44:52;99647.28;;;11.18;49.19
51715;BME280;39115;59.332;18.034;2023-04-25T11:47:12;99639.13;;;11.12;48.82
51715;BME280;39115;59.332;18.034;2023-04-25T11:49:33;99638.81;;;11.06;49.12
51715;BME280;39115;59.332;18.034;2023-04-25T11:51:53;99635.78;;;11.01;49.10
51715;BME280;39115;59.332;18.034;2023-04-25T11:54:13;99643.44;;;10.96;48.56
51715;BME280;39115;59.332;18.034;2023-04-25T11:56:34;99643.75;;;10.93;48.60
51715;BME280;39115;59.332;18.034;2023-04-25T11:58:55;99643.09;;;10.91;49.26
51715;BME280;39115;59.332;18.034;2023-04-25T12:01:35;99633.44;;;10.90;49.06
51715;BME280;39115;59.332;18.034;2023-04-25T12:03:56;99643.75;;;10.93;49.42
51715;BME280;39115;59.332;18.034;2023-04-25T12:06:17;99639.44;;;11.00;48.84
51715;BME280;39115;59.332;18.034;2023-04-25T12:08:37;99645.44;;;11.02;49.16
51715;BME280;39115;59.332;18.034;2023-04-25T12:10:57;99630.63;;;11.00;48.66
51715;BME280;39115;59.332;18.034;2023-04-25T12:15:40;99633.13;;;11.01;49.02
51715;BME280;39115;59.332;18.034;2023-04-25T12:18:01;99647.09;;;11.03;48.61
51715;BME280;39115;59.332;18.034;2023-04-25T12:20:25;99636.63;;;11.02;49.15
51715;BME280;39115;59.332;18.034;2023-04-25T12:22:46;99642.78;;;11.02;48.88
51715;BME280;39115;59.332;18.034;2023-04-25T12:25:07;99642.94;;;11.01;48.77
51715;BME280;39115;59.332;18.034;2023-04-25T12:27:28;99637.63;;;11.01;48.90
51715;BME280;39115;59.332;18.034;2023-04-25T12:29:52;99647.09;;;11.03;48.95
51715;BME280;39115;59.332;18.034;2023-04-25T12:32:12;99647.78;;;11.05;48.86
51715;BME280;39115;59.332;18.034;2023-04-25T12:34:33;99650.44;;;11.05;49.14